Tropical Cyclones
[Index]
Main Index Home Page Stock Weather Photos Extreme Storms Discussion Storm News and Storm Chasing Reports Tropical Cyclones / Hurricanes / Typhoons Weather Data and Links Wild Fires / Bushfires Weather Observation Techniques Weather Picture Catalogue Tornado Pictures and Reports Stock Video Footage and DVDs for sale
Season 2004-2005 Tropical Cyclone INGRID Track Map
Season 2004-2005 Summaries (Operational Data): [AU] [SIO] [SPAC] [SH]
<<- Previous TC | 2004-2005 Season | Next TC ->>

click for intensity scale information  Lat/long Grid: Show Hide

 Date Labels: Show Hide

Operational Tropical Cyclone Data : JTWC Advisories

Name: INGRID
Number: 0522

05 Mar 2005 02:00 UTC to 19 Mar 2005 22:00 UTC

    date/time    lat    long     hPa   cat  kts
2005-03-05 02   11.8   144.2    1006         20          
2005-03-05 05   11.9   145.0    1004         25          
2005-03-05 11   12.7   146.3    1004         30          
2005-03-05 18   12.4   147.4    1002         30          
2005-03-06 00   12.7   148.0    1002         30          
2005-03-06 02   12.7   148.0     998    1    40          
2005-03-06 06   13.1   148.1     995    1    45          
2005-03-06 07   13.1   148.1     985    2    50          
2005-03-06 12   13.6   148.7     975    3    70          
2005-03-06 18   13.8   149.0     970    3    75          
2005-03-07 00   14.1   148.8     965    3    80          
2005-03-07 06   14.3   148.6     950    3    85          
2005-03-07 07   14.3   148.5     930    4    95          
2005-03-07 12   14.3   148.4     935    4    90          
2005-03-07 18   14.0   147.9     930    5   115          
2005-03-08 00   13.9   147.4     930    5   115          
2005-03-08 06   14.0   146.9     930    5   115          
2005-03-08 12   14.0   146.5     930    5   115          
2005-03-08 18   13.6   146.1     935    5   110          
2005-03-09 00   13.5   145.5     935    5   110          
2005-03-09 06   13.6   145.0     950    4    95          
2005-03-09 12   13.5   144.5     970    3    75          
2005-03-09 18   13.2   143.8     960    3    85          
2005-03-09 20   13.2   143.5     955    4    90          
2005-03-10 00   13.0   143.0     975    3    65          
2005-03-10 06   13.4   141.9     990    1    45          
2005-03-10 12   13.1   141.5     992    1    40          
2005-03-10 18   12.9   140.3     978    2    55          
2005-03-11 00   12.5   139.5     978    2    60          
2005-03-11 06   12.4   138.7     970    3    70          
2005-03-11 12   12.2   137.8     955    4    90          
2005-03-11 18   11.9   136.8     950    4   100          
2005-03-12 00   11.6   135.9     938    5   110          
2005-03-12 06   11.6   134.9     925    5   120          
2005-03-12 12   11.4   133.9     925    5   120          
2005-03-12 18   11.2   132.8     930    5   110          
2005-03-13 00   11.2   132.2     944    4   100          
2005-03-13 06   11.3   131.3     950    4    90          
2005-03-13 12   11.4   130.8     955    3    80          
2005-03-13 18   11.5   130.2     955    3    80          
2005-03-14 00   11.5   129.7     960    3    80          
2005-03-14 06   11.8   129.4     960    3    80          
2005-03-14 12   12.1   128.7     950    4    90          
2005-03-14 18   12.1   128.3     945    4   100          
2005-03-15 00   12.8   128.0     935    5   110          
2005-03-15 06   13.2   127.6     935    5   110          
2005-03-15 12   13.8   127.2     935    5   110          
2005-03-15 18   14.3   126.7     955    4    90          
2005-03-16 00   14.4   126.4     968    3    65          
2005-03-16 04   14.5   126.5     980    2    55          
2005-03-16 10   15.1   127.2     985    1    45          
2005-03-16 16   15.4   127.6     988    1    40          
2005-03-19 19   15.4   128.2     992    1    35          
2005-03-19 22   15.9   129.0                 30          
Winds are 10-min average.

Tropical cyclone tracks developed by Michael Bath using operational warnings and advisories and Google Maps.


[Australian Severe Weather index] [Copyright Notice] [Email Contacts] [Search This Site] [Privacy Policy]
Document: tropical_cyclone_ingrid.htm Updated: 28 May 2013